createdAt,value
2023-04-09T00:01:12.665Z,19.90
2023-04-09T00:03:41.221Z,21.80
2023-04-09T00:06:12.314Z,19.70
2023-04-09T00:09:15.701Z,19.60
2023-04-09T00:11:43.810Z,20.70
2023-04-09T00:14:11.975Z,20.00
2023-04-09T00:16:40.677Z,19.80
2023-04-09T00:19:08.712Z,18.40
2023-04-09T00:21:39.211Z,19.90
2023-04-09T00:24:07.999Z,19.60
2023-04-09T00:26:36.547Z,20.10
2023-04-09T00:29:07.932Z,20.70
2023-04-09T00:31:36.289Z,20.30
2023-04-09T00:34:07.469Z,21.50
2023-04-09T00:36:35.408Z,23.20
2023-04-09T00:39:09.250Z,20.60
2023-04-09T00:41:39.901Z,21.40
2023-04-09T00:44:07.963Z,21.90
2023-04-09T00:46:38.705Z,21.00
2023-04-09T00:49:06.847Z,20.50
2023-04-09T00:51:36.932Z,21.20
2023-04-09T00:54:05.649Z,21.80
2023-04-09T00:56:34.691Z,21.00
2023-04-09T00:59:05.969Z,21.90
2023-04-09T01:01:34.260Z,21.10
2023-04-09T01:04:02.578Z,20.90
2023-04-09T01:06:43.999Z,21.70
2023-04-09T01:09:22.845Z,20.50
2023-04-09T01:12:12.090Z,22.60
2023-04-09T01:14:57.492Z,23.50
2023-04-09T01:17:38.274Z,21.90
2023-04-09T01:20:15.491Z,22.10
2023-04-09T01:23:37.014Z,22.60
2023-04-09T01:26:19.355Z,21.50
2023-04-09T01:29:00.465Z,21.40
2023-04-09T01:31:34.626Z,22.70
2023-04-09T01:34:12.889Z,22.50
2023-04-09T01:36:45.878Z,23.60
2023-04-09T01:39:33.183Z,21.60
2023-04-09T01:42:11.013Z,23.10
2023-04-09T01:44:42.787Z,23.20
2023-04-09T01:47:11.504Z,21.10
2023-04-09T01:49:45.234Z,22.40
2023-04-09T01:52:13.936Z,23.50
2023-04-09T01:54:43.208Z,23.70
2023-04-09T01:57:11.390Z,22.80
2023-04-09T01:59:39.865Z,23.40
2023-04-09T02:02:24.759Z,23.50
2023-04-09T02:04:54.368Z,24.00
2023-04-09T02:07:39.335Z,24.30
2023-04-09T02:10:13.434Z,22.60
2023-04-09T02:12:49.418Z,22.50
2023-04-09T02:15:19.340Z,23.00
2023-04-09T02:17:47.771Z,25.10
2023-04-09T02:20:19.638Z,23.50
2023-04-09T02:22:48.435Z,22.50
2023-04-09T02:25:16.303Z,23.90
2023-04-09T02:27:44.189Z,20.40
2023-04-09T02:30:12.200Z,22.20
2023-04-09T02:32:40.415Z,22.50
2023-04-09T02:35:08.918Z,23.60
2023-04-09T02:37:36.876Z,23.20
2023-04-09T02:40:05.323Z,23.50
2023-04-09T02:42:33.220Z,23.60
2023-04-09T02:45:04.414Z,24.10
2023-04-09T02:47:36.261Z,24.20
2023-04-09T02:50:05.244Z,26.00
2023-04-09T02:52:35.731Z,25.30
2023-04-09T02:55:07.256Z,23.90
2023-04-09T02:57:37.303Z,24.30
2023-04-09T03:00:05.987Z,22.30
2023-04-09T03:02:43.701Z,24.40
2023-04-09T03:05:12.261Z,23.00
2023-04-09T03:07:40.468Z,26.70
2023-04-09T03:10:11.906Z,25.70
2023-04-09T03:12:55.291Z,25.20
2023-04-09T03:15:23.940Z,23.30
2023-04-09T03:17:52.285Z,24.40
2023-04-09T03:20:34.996Z,24.70
2023-04-09T03:23:03.744Z,25.20
2023-04-09T03:25:36.837Z,24.50
2023-04-09T03:28:12.636Z,24.80
2023-04-09T03:30:43.488Z,25.40
2023-04-09T03:33:11.602Z,24.80
2023-04-09T03:35:52.542Z,24.90
2023-04-09T03:38:28.206Z,25.40
2023-04-09T03:40:57.146Z,24.60
2023-04-09T03:43:28.268Z,24.30
2023-04-09T03:45:56.441Z,24.90
2023-04-09T03:48:27.030Z,24.20
2023-04-09T03:51:04.691Z,25.90
2023-04-09T03:53:37.853Z,25.30
2023-04-09T03:56:07.973Z,24.30
2023-04-09T03:58:39.665Z,25.20
2023-04-09T04:01:08.545Z,25.30
2023-04-09T04:03:43.644Z,24.10
2023-04-09T04:06:38.331Z,24.30
2023-04-09T04:09:35.601Z,24.50
2023-04-09T04:12:07.492Z,23.40
2023-04-09T04:14:51.046Z,24.40
2023-04-09T04:17:31.711Z,23.10
2023-04-09T04:20:01.509Z,25.10
2023-04-09T04:22:33.253Z,24.40
2023-04-09T04:25:03.840Z,25.50
2023-04-09T04:27:31.938Z,25.50
2023-04-09T04:30:02.122Z,25.40
2023-04-09T04:32:51.117Z,25.20
2023-04-09T04:35:21.836Z,25.90
2023-04-09T04:37:53.325Z,26.80
2023-04-09T04:43:00.518Z,25.70
2023-04-09T04:45:35.076Z,25.80
2023-04-09T04:48:09.482Z,25.60
2023-04-09T04:50:38.332Z,26.10
2023-04-09T04:53:10.069Z,27.50
2023-04-09T04:55:46.267Z,25.90
2023-04-09T04:58:16.607Z,24.20
2023-04-09T05:00:49.271Z,26.50
2023-04-09T05:03:18.158Z,28.10
2023-04-09T05:06:06.076Z,28.40
2023-04-09T05:08:45.086Z,25.90
2023-04-09T05:11:15.117Z,25.90
2023-04-09T05:13:43.515Z,26.50
2023-04-09T05:16:21.085Z,27.40
2023-04-09T05:18:55.233Z,26.60
2023-04-09T05:21:27.649Z,27.20
2023-04-09T05:23:57.734Z,26.10
2023-04-09T05:26:27.418Z,26.90
2023-04-09T05:28:58.696Z,28.60
2023-04-09T05:31:27.227Z,26.50
2023-04-09T05:34:16.501Z,26.90
2023-04-09T05:36:47.932Z,25.80
2023-04-09T05:39:18.984Z,26.00
2023-04-09T05:41:56.836Z,24.60
2023-04-09T05:44:27.765Z,24.30
2023-04-09T05:47:18.973Z,24.00
2023-04-09T05:49:59.767Z,24.90
2023-04-09T05:52:28.810Z,26.40
2023-04-09T05:55:06.796Z,25.10
2023-04-09T05:57:48.085Z,24.80
2023-04-09T06:00:25.757Z,25.70
2023-04-09T06:02:53.799Z,24.20
2023-04-09T06:05:22.180Z,25.70
2023-04-09T06:07:50.681Z,26.00
2023-04-09T06:10:18.746Z,25.40
2023-04-09T06:12:48.524Z,25.70
2023-04-09T06:15:19.963Z,23.20
2023-04-09T06:17:48.379Z,25.50
2023-04-09T06:20:17.308Z,24.10
2023-04-09T06:22:48.379Z,24.90
2023-04-09T06:25:17.157Z,26.40
2023-04-09T06:27:45.222Z,25.70
2023-04-09T06:30:35.876Z,25.30
2023-04-09T06:33:03.788Z,24.80
2023-04-09T06:35:37.101Z,25.10
2023-04-09T06:38:05.371Z,25.60
2023-04-09T06:40:33.580Z,26.20
2023-04-09T06:43:01.970Z,25.50
2023-04-09T06:45:39.113Z,24.80
2023-04-09T06:48:09.265Z,24.60
2023-04-09T06:50:46.864Z,26.30
2023-04-09T06:53:15.673Z,24.30
2023-04-09T06:55:46.615Z,27.20
2023-04-09T06:58:14.456Z,25.10
2023-04-09T07:00:42.781Z,23.80
2023-04-09T07:03:11.488Z,25.70
2023-04-09T07:05:39.682Z,26.90
2023-04-09T07:08:08.032Z,26.00
2023-04-09T07:10:38.451Z,26.60
2023-04-09T07:13:06.759Z,24.70
2023-04-09T07:15:34.976Z,25.70
2023-04-09T07:18:03.316Z,25.30
2023-04-09T07:20:34.345Z,25.10
2023-04-09T07:23:02.576Z,22.70
2023-04-09T07:25:33.211Z,25.60
2023-04-09T07:28:44.353Z,24.00
2023-04-09T07:33:55.441Z,23.30
2023-04-09T07:36:26.686Z,23.00
2023-04-09T07:38:57.747Z,24.60
2023-04-09T07:41:25.991Z,24.80
2023-04-09T07:43:54.051Z,25.70
2023-04-09T07:46:22.357Z,22.50
2023-04-09T07:48:51.081Z,24.50
2023-04-09T07:51:22.266Z,24.10
2023-04-09T07:53:50.679Z,23.60
2023-04-09T07:56:22.427Z,23.40
2023-04-09T07:58:51.421Z,22.80
2023-04-09T13:02:36.657Z,23.60
2023-04-09T13:05:05.546Z,24.30
2023-04-09T13:07:33.476Z,25.20
2023-04-09T13:10:01.689Z,26.40
2023-04-09T13:12:30.243Z,24.40
2023-04-09T13:14:59.239Z,25.10
2023-04-09T13:17:27.439Z,24.90
2023-04-09T13:19:55.630Z,26.30
2023-04-09T13:22:23.684Z,24.70
2023-04-09T13:24:51.531Z,25.40
2023-04-09T13:27:19.402Z,25.40
2023-04-09T13:29:47.380Z,26.60
2023-04-09T13:32:15.604Z,23.40
2023-04-09T13:34:43.526Z,25.40
2023-04-09T13:37:11.777Z,23.50
2023-04-09T13:39:39.784Z,23.70
2023-04-09T13:42:13.736Z,25.60
2023-04-09T13:44:45.098Z,24.40
2023-04-09T13:47:13.645Z,23.90
2023-04-09T13:49:42.429Z,23.40
2023-04-09T13:52:10.863Z,24.20
2023-04-09T13:54:38.776Z,24.70
2023-04-09T13:57:06.953Z,23.80
2023-04-09T13:59:34.866Z,23.30
2023-04-09T14:02:02.957Z,24.20
2023-04-09T14:04:34.719Z,23.30
2023-04-09T14:07:02.625Z,22.70
2023-04-09T14:09:30.669Z,22.40
2023-04-09T14:11:58.702Z,24.40
2023-04-09T14:14:26.633Z,24.20
2023-04-09T14:16:55.560Z,23.20
2023-04-09T14:19:24.270Z,25.40
2023-04-09T14:21:53.362Z,23.60
2023-04-09T14:24:23.194Z,22.10
2023-04-09T14:26:53.489Z,23.20
2023-04-09T14:29:22.175Z,24.60
2023-04-09T14:31:50.731Z,24.00
2023-04-09T14:34:18.703Z,22.10
2023-04-09T14:36:47.193Z,21.90
2023-04-09T14:39:15.954Z,21.20
2023-04-09T14:41:43.873Z,21.40
2023-04-09T14:44:14.680Z,20.20
2023-04-09T14:46:43.443Z,21.80
2023-04-09T14:49:11.382Z,22.90
2023-04-09T14:51:39.509Z,21.90
2023-04-09T14:54:07.391Z,22.20
2023-04-09T14:56:35.415Z,20.70
2023-04-09T14:59:06.225Z,21.90
2023-04-09T15:01:34.309Z,20.90
2023-04-09T15:04:02.730Z,20.90
2023-04-09T15:06:32.348Z,21.20
2023-04-09T15:09:00.738Z,21.70
2023-04-09T15:11:29.545Z,20.90
2023-04-09T15:13:58.073Z,22.20
2023-04-09T15:16:27.687Z,21.30
2023-04-09T15:18:57.811Z,22.10
2023-04-09T15:21:27.181Z,22.40
2023-04-09T15:23:56.319Z,20.70
2023-04-09T15:26:24.501Z,21.40
2023-04-09T15:28:53.709Z,23.70
2023-04-09T15:31:21.801Z,21.20
2023-04-09T15:33:50.419Z,23.20
2023-04-09T15:36:18.399Z,21.20
2023-04-09T15:38:46.471Z,23.40
2023-04-09T15:41:16.922Z,23.50
2023-04-09T15:43:44.788Z,24.60
2023-04-09T15:46:12.872Z,23.80
2023-04-09T15:48:41.728Z,24.00
2023-04-09T15:51:10.176Z,22.50
2023-04-09T15:53:38.058Z,22.30
2023-04-09T15:56:06.538Z,23.00
2023-04-09T15:58:36.234Z,23.00
2023-04-09T16:01:11.056Z,23.50
2023-04-09T16:03:41.891Z,23.90
2023-04-09T16:06:13.508Z,22.30
2023-04-09T16:08:41.759Z,23.30
2023-04-09T16:11:10.602Z,22.80
2023-04-09T16:13:38.477Z,21.70
2023-04-09T16:16:07.473Z,24.20
2023-04-09T16:18:36.015Z,26.60
2023-04-09T16:21:04.348Z,24.40
2023-04-09T16:23:33.064Z,26.10
2023-04-09T16:26:01.229Z,25.90
2023-04-09T16:28:29.053Z,23.00
2023-04-09T16:30:59.264Z,22.70
2023-04-09T16:33:27.626Z,23.40
2023-04-09T16:35:55.690Z,23.00
2023-04-09T16:38:24.774Z,21.80
2023-04-09T16:40:55.118Z,21.20
2023-04-09T16:43:22.959Z,22.50
2023-04-09T16:45:52.329Z,21.60
2023-04-09T16:48:20.997Z,20.40
2023-04-09T16:50:49.283Z,22.20
2023-04-09T16:53:17.183Z,22.50
2023-04-09T16:55:45.177Z,22.70
2023-04-09T16:58:13.385Z,22.70
2023-04-09T17:00:42.116Z,22.60
2023-04-09T17:03:12.617Z,23.10
2023-04-09T17:05:40.483Z,21.70
2023-04-09T17:08:08.479Z,22.70
2023-04-09T17:10:37.114Z,21.60
2023-04-09T17:13:14.910Z,21.50
2023-04-09T17:15:43.829Z,23.70
2023-04-09T17:18:12.244Z,22.30
2023-04-09T17:20:40.740Z,21.40
2023-04-09T17:23:08.989Z,20.60
2023-04-09T17:25:37.044Z,20.80
2023-04-09T17:28:05.028Z,23.60
2023-04-09T17:30:33.399Z,22.90
2023-04-09T17:33:01.838Z,26.30
2023-04-09T17:35:30.259Z,25.10
2023-04-09T17:37:58.892Z,24.90
2023-04-09T17:40:28.263Z,25.40
2023-04-09T17:42:56.510Z,24.10
2023-04-09T17:45:25.427Z,24.40
2023-04-09T17:47:53.499Z,24.70
2023-04-09T17:53:03.831Z,24.50
2023-04-09T17:55:32.369Z,25.40
2023-04-09T17:58:00.511Z,25.10
2023-04-09T18:00:28.522Z,24.90
2023-04-09T18:02:57.643Z,25.50
2023-04-09T18:05:27.653Z,24.60
2023-04-09T18:07:56.876Z,24.30
2023-04-09T18:10:25.402Z,24.80
2023-04-09T18:12:53.610Z,25.90
2023-04-09T18:15:22.645Z,23.50
2023-04-09T18:17:51.567Z,25.30
2023-04-09T18:20:19.599Z,24.40
2023-04-09T18:22:47.574Z,24.80
2023-04-09T18:25:15.879Z,25.90
2023-04-09T18:27:46.774Z,24.60
2023-04-09T18:30:14.683Z,23.30
2023-04-09T18:32:43.491Z,23.00
2023-04-09T18:35:12.224Z,22.30
2023-04-09T18:37:40.568Z,22.50
2023-04-09T18:40:15.500Z,22.20
2023-04-09T18:42:46.530Z,23.90
2023-04-09T18:45:16.686Z,23.40
2023-04-09T18:47:45.364Z,22.80
2023-04-09T18:50:18.213Z,23.40
2023-04-09T18:52:46.244Z,24.50
2023-04-09T18:55:14.810Z,24.80
2023-04-09T18:57:44.239Z,24.50
2023-04-09T19:00:12.986Z,24.40
2023-04-09T19:02:41.118Z,28.80
2023-04-09T19:05:09.661Z,28.70
2023-04-09T19:07:37.972Z,26.90
2023-04-09T19:10:06.604Z,28.70
2023-04-09T19:12:34.537Z,31.00
2023-04-09T19:15:07.032Z,25.70
2023-04-09T19:17:35.039Z,28.60
2023-04-09T19:20:04.430Z,30.90
2023-04-09T19:22:32.933Z,29.90
2023-04-09T19:25:00.903Z,30.40
2023-04-09T19:27:28.974Z,32.80
2023-04-09T19:29:58.855Z,31.80
2023-04-09T19:32:27.278Z,30.60
2023-04-09T19:34:58.696Z,32.50
2023-04-09T19:37:28.853Z,33.40
2023-04-09T19:39:58.158Z,34.20
2023-04-09T19:42:28.754Z,34.10
2023-04-09T19:44:57.342Z,32.10
2023-04-09T19:47:27.407Z,27.80
2023-04-09T19:49:55.589Z,30.10
2023-04-09T19:52:23.793Z,30.60
2023-04-09T19:54:56.420Z,28.80
2023-04-09T19:57:26.561Z,27.70
2023-04-09T19:59:55.265Z,25.50
2023-04-09T20:02:24.101Z,24.20
2023-04-09T20:04:52.571Z,25.80
2023-04-09T20:07:20.897Z,26.30
2023-04-09T20:09:49.718Z,27.60
2023-04-09T20:12:17.724Z,26.60
2023-04-09T20:14:46.645Z,26.20
2023-04-09T20:17:14.553Z,28.30
2023-04-09T20:19:42.471Z,28.10
2023-04-09T20:22:10.496Z,27.50
2023-04-09T20:24:38.512Z,27.00
2023-04-09T20:27:06.530Z,27.80
2023-04-09T20:29:34.722Z,27.60
2023-04-09T20:32:03.609Z,27.10
2023-04-09T20:34:32.602Z,28.20
2023-04-09T20:37:00.539Z,29.40
2023-04-09T20:39:30.476Z,28.00
2023-04-09T20:41:58.702Z,28.10
2023-04-09T20:44:29.023Z,29.90
2023-04-09T20:46:57.039Z,29.90
2023-04-09T20:49:29.802Z,26.20
2023-04-09T20:51:58.393Z,27.30
2023-04-09T20:54:29.866Z,25.50
2023-04-09T20:56:57.952Z,27.60
2023-04-09T20:59:26.429Z,25.70
2023-04-09T21:01:57.612Z,24.80
2023-04-09T21:04:26.121Z,28.90
2023-04-09T21:06:54.517Z,38.10
2023-04-09T21:09:22.448Z,36.20
2023-04-09T21:11:50.536Z,32.00
2023-04-09T21:14:18.442Z,30.00
2023-04-09T21:16:46.488Z,28.50
2023-04-09T21:19:14.567Z,31.70
2023-04-09T21:21:42.626Z,33.00
2023-04-09T21:24:10.511Z,31.90
2023-04-09T21:26:49.533Z,32.00
2023-04-09T21:29:21.258Z,32.90
2023-04-09T21:31:49.973Z,35.10
2023-04-09T21:34:17.848Z,35.20
2023-04-09T21:36:46.281Z,32.40
2023-04-09T21:39:14.433Z,32.20
2023-04-09T21:41:42.457Z,32.00
2023-04-09T21:44:10.529Z,32.00
2023-04-09T21:46:40.701Z,30.60
2023-04-09T21:49:08.927Z,28.00
2023-04-09T21:51:37.506Z,27.40
2023-04-09T21:54:07.104Z,25.70
2023-04-09T21:56:35.969Z,25.60
2023-04-09T21:59:04.043Z,24.20
2023-04-09T22:01:33.609Z,23.10
2023-04-09T22:04:02.097Z,20.80
2023-04-09T22:06:31.287Z,22.90
2023-04-09T22:09:00.043Z,23.80
2023-04-09T22:11:28.647Z,24.40
2023-04-09T22:13:57.533Z,25.00
2023-04-09T22:16:26.401Z,22.50
2023-04-09T22:18:54.797Z,23.40
2023-04-09T22:21:23.202Z,22.90
2023-04-09T22:23:51.529Z,22.50
2023-04-09T22:26:19.999Z,22.60
2023-04-09T22:28:48.067Z,21.10
2023-04-09T22:31:16.902Z,23.00
2023-04-09T22:33:44.799Z,23.50
2023-04-09T22:36:12.800Z,23.30
2023-04-09T22:38:40.695Z,24.00
2023-04-09T22:41:08.563Z,24.20
2023-04-09T22:43:37.222Z,21.80
2023-04-09T22:46:06.039Z,24.10
2023-04-09T22:48:40.829Z,25.60
2023-04-09T22:51:13.749Z,24.40
2023-04-09T22:53:42.014Z,23.70
2023-04-09T22:56:10.070Z,21.90
2023-04-09T22:58:38.476Z,24.10
2023-04-09T23:01:06.901Z,26.80
2023-04-09T23:03:35.012Z,29.80
2023-04-09T23:06:03.126Z,31.00
2023-04-09T23:08:31.313Z,30.60
2023-04-09T23:10:59.168Z,33.30
2023-04-09T23:13:27.173Z,35.20
2023-04-09T23:15:55.139Z,30.20
2023-04-09T23:18:23.064Z,27.10
2023-04-09T23:20:51.236Z,26.70
2023-04-09T23:23:19.284Z,28.70
2023-04-09T23:25:47.109Z,26.10
2023-04-09T23:28:15.041Z,23.80
2023-04-09T23:30:43.988Z,23.90
2023-04-09T23:33:11.851Z,24.00
2023-04-09T23:35:39.955Z,24.60
2023-04-09T23:38:08.067Z,27.50
2023-04-09T23:40:36.000Z,26.20
2023-04-09T23:43:04.673Z,27.10
2023-04-09T23:45:32.520Z,25.10
2023-04-09T23:48:00.911Z,24.90
2023-04-09T23:50:29.069Z,24.70
2023-04-09T23:53:03.406Z,25.50
2023-04-09T23:55:33.552Z,25.00
2023-04-09T23:58:01.651Z,24.00
